createdAt,value
2022-09-22T00:01:27.543Z,4.59
2022-09-22T00:03:56.968Z,4.59
2022-09-22T00:06:27.152Z,4.47
2022-09-22T00:08:57.376Z,4.44
2022-09-22T00:11:28.484Z,4.52
2022-09-22T00:13:59.378Z,4.49
2022-09-22T00:16:30.636Z,4.56
2022-09-22T00:18:59.459Z,4.48
2022-09-22T00:21:27.977Z,4.47
2022-09-22T00:23:56.388Z,4.38
2022-09-22T00:26:26.837Z,4.33
2022-09-22T00:28:54.960Z,4.30
2022-09-22T00:31:25.030Z,4.31
2022-09-22T00:33:54.716Z,4.39
2022-09-22T00:36:25.780Z,4.44
2022-09-22T00:38:55.600Z,4.46
2022-09-22T00:41:27.761Z,4.44
2022-09-22T00:44:32.281Z,4.24
2022-09-22T00:47:02.900Z,4.17
2022-09-22T00:49:35.724Z,4.15
2022-09-22T00:52:03.944Z,4.28
2022-09-22T00:54:32.873Z,4.29
2022-09-22T00:57:07.281Z,4.21
2022-09-22T00:59:36.161Z,4.14
2022-09-22T01:02:04.454Z,4.23
2022-09-22T01:04:32.770Z,4.36
2022-09-22T01:07:02.159Z,4.15
2022-09-22T01:09:33.060Z,4.04
2022-09-22T01:12:01.430Z,3.98
2022-09-22T01:14:42.045Z,4.07
2022-09-22T01:17:16.262Z,4.28
2022-09-22T01:20:15.258Z,4.29
2022-09-22T01:23:16.724Z,4.17
2022-09-22T01:26:13.691Z,4.09
2022-09-22T01:29:00.769Z,3.98
2022-09-22T01:31:34.588Z,4.12
2022-09-22T01:34:07.848Z,4.01
2022-09-22T01:36:40.531Z,4.04
2022-09-22T01:39:13.881Z,3.93
2022-09-22T01:41:51.972Z,3.95
2022-09-22T01:44:25.878Z,3.94
2022-09-22T01:46:57.579Z,3.89
2022-09-22T01:49:26.369Z,3.93
2022-09-22T01:51:58.099Z,3.82
2022-09-22T01:54:30.301Z,3.80
2022-09-22T01:57:02.227Z,3.95
2022-09-22T01:59:31.779Z,3.89
2022-09-22T02:02:04.590Z,3.90
2022-09-22T02:04:36.757Z,3.98
2022-09-22T02:07:07.844Z,4.09
2022-09-22T02:09:36.562Z,3.80
2022-09-22T02:12:05.808Z,3.70
2022-09-22T02:14:34.091Z,3.63
2022-09-22T02:17:03.718Z,3.57
2022-09-22T02:19:34.995Z,3.60
2022-09-22T02:22:03.293Z,3.53
2022-09-22T02:24:33.292Z,3.50
2022-09-22T02:27:05.389Z,3.59
2022-09-22T02:29:35.902Z,3.63
2022-09-22T02:32:07.968Z,3.51
2022-09-22T02:34:36.262Z,3.49
2022-09-22T02:37:08.487Z,3.48
2022-09-22T02:39:41.320Z,3.41
2022-09-22T02:42:27.063Z,3.28
2022-09-22T02:44:59.333Z,3.23
2022-09-22T02:47:33.530Z,3.24
2022-09-22T02:50:04.556Z,3.28
2022-09-22T02:52:32.736Z,3.32
2022-09-22T02:55:01.080Z,3.20
2022-09-22T02:57:29.214Z,3.14
2022-09-22T02:59:57.378Z,3.19
2022-09-22T03:02:25.848Z,3.35
2022-09-22T03:04:55.780Z,3.45
2022-09-22T03:07:23.970Z,3.56
2022-09-22T03:09:52.095Z,3.60
2022-09-22T03:12:20.495Z,3.56
2022-09-22T03:14:49.968Z,3.52
2022-09-22T03:17:18.210Z,3.48
2022-09-22T03:19:46.341Z,3.65
2022-09-22T03:22:16.041Z,3.79
2022-09-22T03:24:44.169Z,4.02
2022-09-22T03:27:12.320Z,3.96
2022-09-22T03:29:40.475Z,3.83
2022-09-22T03:32:08.602Z,3.86
2022-09-22T03:34:36.884Z,3.71
2022-09-22T03:37:05.255Z,3.62
2022-09-22T03:39:34.787Z,3.62
2022-09-22T03:42:03.132Z,3.61
2022-09-22T03:44:31.235Z,3.60
2022-09-22T03:46:59.994Z,3.54
2022-09-22T03:49:28.473Z,3.44
2022-09-22T03:51:56.832Z,3.40
2022-09-22T03:54:25.166Z,3.42
2022-09-22T03:56:54.818Z,3.41
2022-09-22T03:59:23.000Z,3.35
2022-09-22T04:01:53.557Z,3.38
2022-09-22T04:04:25.857Z,3.54
2022-09-22T04:06:54.213Z,3.74
2022-09-22T04:09:22.550Z,3.91
2022-09-22T04:11:50.762Z,3.80
2022-09-22T04:14:20.806Z,3.66
2022-09-22T04:16:49.008Z,3.57
2022-09-22T04:19:17.229Z,3.61
2022-09-22T04:21:45.354Z,3.80
2022-09-22T04:24:14.405Z,4.14
2022-09-22T04:26:56.636Z,4.35
2022-09-22T04:29:32.160Z,4.54
2022-09-22T04:32:02.029Z,4.77
2022-09-22T04:34:30.830Z,4.34
2022-09-22T04:36:59.021Z,4.06
2022-09-22T04:39:28.782Z,3.99
2022-09-22T04:41:57.067Z,4.09
2022-09-22T04:44:25.231Z,4.35
2022-09-22T04:46:56.006Z,4.55
2022-09-22T04:49:24.591Z,4.65
2022-09-22T04:51:53.169Z,4.57
2022-09-22T04:54:21.511Z,4.38
2022-09-22T04:56:49.675Z,4.37
2022-09-22T04:59:18.539Z,4.11
2022-09-22T05:01:46.822Z,3.99
2022-09-22T05:04:16.353Z,3.91
2022-09-22T05:06:44.616Z,3.99
2022-09-22T05:09:12.761Z,4.32
2022-09-22T05:11:41.819Z,4.51
2022-09-22T05:14:12.795Z,4.44
2022-09-22T05:16:42.089Z,4.48
2022-09-22T05:19:10.770Z,4.58
2022-09-22T05:21:40.295Z,4.69
2022-09-22T05:24:08.433Z,4.98
2022-09-22T05:26:36.575Z,5.05
2022-09-22T05:29:06.401Z,5.18
2022-09-22T05:31:34.703Z,5.04
2022-09-22T05:34:03.112Z,4.94
2022-09-22T05:36:31.884Z,4.93
2022-09-22T05:39:01.455Z,5.00
2022-09-22T05:41:30.673Z,5.06
2022-09-22T05:43:58.828Z,5.13
2022-09-22T05:46:27.073Z,5.21
2022-09-22T05:48:55.246Z,5.25
2022-09-22T05:51:23.480Z,5.31
2022-09-22T05:53:53.606Z,5.27
2022-09-22T05:56:23.166Z,5.30
2022-09-22T05:58:51.337Z,5.33
2022-09-22T06:01:19.870Z,5.38
2022-09-22T06:03:48.015Z,5.42
2022-09-22T06:06:16.239Z,5.48
2022-09-22T06:08:48.616Z,5.65
2022-09-22T06:11:17.378Z,5.88
2022-09-22T06:13:48.638Z,6.19
2022-09-22T06:16:16.883Z,6.33
2022-09-22T06:18:46.568Z,6.64
2022-09-22T06:21:14.819Z,6.82
2022-09-22T06:23:43.132Z,7.15
2022-09-22T06:26:11.731Z,7.59
2022-09-22T06:28:39.865Z,7.67
2022-09-22T06:31:09.445Z,7.77
2022-09-22T06:33:38.205Z,7.72
2022-09-22T06:36:08.030Z,7.90
2022-09-22T06:38:36.231Z,8.14
2022-09-22T06:41:06.786Z,8.24
2022-09-22T06:43:37.925Z,8.29
2022-09-22T06:46:06.420Z,8.13
2022-09-22T06:48:37.753Z,8.51
2022-09-22T06:51:05.973Z,8.58
2022-09-22T06:53:34.127Z,8.44
2022-09-22T06:56:06.289Z,8.89
2022-09-22T06:58:52.502Z,8.79
2022-09-22T07:01:23.438Z,8.95
2022-09-22T07:03:54.646Z,9.06
2022-09-22T07:06:22.854Z,9.21
2022-09-22T07:08:51.081Z,9.08
2022-09-22T07:11:23.803Z,9.04
2022-09-22T07:13:53.547Z,8.85
2022-09-22T07:16:23.699Z,8.97
2022-09-22T07:18:55.232Z,9.00
2022-09-22T07:21:25.546Z,9.17
2022-09-22T07:23:56.154Z,9.28
2022-09-22T07:26:26.604Z,9.52
2022-09-22T07:28:56.267Z,9.60
2022-09-22T07:31:28.657Z,9.48
2022-09-22T07:34:00.409Z,9.52
2022-09-22T07:36:30.580Z,9.68
2022-09-22T07:39:03.131Z,9.75
2022-09-22T07:41:34.162Z,9.74
2022-09-22T07:44:22.814Z,9.87
2022-09-22T07:46:51.070Z,10.00
2022-09-22T07:49:22.282Z,10.16
2022-09-22T07:51:54.922Z,10.22
2022-09-22T07:54:23.631Z,10.44
2022-09-22T07:56:55.403Z,10.65
2022-09-22T07:59:23.585Z,10.75
2022-09-22T08:01:53.699Z,11.02
2022-09-22T08:04:24.326Z,10.82
2022-09-22T08:06:55.666Z,10.75
2022-09-22T08:09:24.631Z,10.77
2022-09-22T08:11:53.266Z,11.05
2022-09-22T08:14:23.884Z,11.33
2022-09-22T08:16:53.431Z,11.56
2022-09-22T08:19:23.977Z,11.89
2022-09-22T08:21:54.210Z,12.20
2022-09-22T08:24:23.684Z,12.50
2022-09-22T08:26:53.798Z,12.66
2022-09-22T08:29:22.229Z,13.01
2022-09-22T08:31:51.583Z,13.02
2022-09-22T08:34:20.284Z,13.37
2022-09-22T08:36:49.986Z,13.47
2022-09-22T08:39:19.117Z,13.52
2022-09-22T08:41:58.291Z,13.93
2022-09-22T08:44:28.326Z,13.68
2022-09-22T08:47:01.901Z,14.24
2022-09-22T08:49:51.664Z,14.54
2022-09-22T08:52:34.182Z,14.41
2022-09-22T08:55:03.639Z,14.45
2022-09-22T08:57:44.848Z,14.41
2022-09-22T09:00:14.765Z,14.53
2022-09-22T09:02:45.749Z,15.37
2022-09-22T09:05:51.641Z,15.40
2022-09-22T09:08:55.810Z,15.58
2022-09-22T09:11:37.022Z,15.77
2022-09-22T09:14:16.912Z,16.23
2022-09-22T09:16:49.175Z,16.82
2022-09-22T09:19:21.261Z,16.68
2022-09-22T09:21:52.738Z,17.07
2022-09-22T09:27:21.773Z,16.96
2022-09-22T09:30:06.818Z,16.71
2022-09-22T09:32:43.342Z,16.54
2022-09-22T09:35:14.587Z,17.30
2022-09-22T09:37:43.932Z,17.61
2022-09-22T09:40:17.277Z,17.74
2022-09-22T09:42:48.879Z,17.99
2022-09-22T09:45:18.323Z,18.16
2022-09-22T09:48:20.435Z,18.23
2022-09-22T09:50:48.879Z,18.23
2022-09-22T09:53:30.601Z,18.51
2022-09-22T09:55:58.915Z,19.19
2022-09-22T09:58:45.819Z,19.43
2022-09-22T10:01:15.598Z,19.93
2022-09-22T10:03:47.046Z,20.14
2022-09-22T10:06:16.652Z,20.22
2022-09-22T10:08:46.867Z,20.33
2022-09-22T10:11:16.072Z,19.47
2022-09-22T10:13:45.733Z,20.41
2022-09-22T10:16:22.966Z,19.35
2022-09-22T10:18:53.201Z,19.29
2022-09-22T10:21:22.354Z,20.79
2022-09-22T10:23:51.508Z,21.30
2022-09-22T10:26:22.914Z,21.23
2022-09-22T10:29:19.207Z,21.11
2022-09-22T10:32:13.598Z,20.32
2022-09-22T10:37:22.058Z,20.29
2022-09-22T10:39:52.268Z,19.39
2022-09-22T10:42:27.400Z,19.71
2022-09-22T10:45:02.049Z,19.63
2022-09-22T10:47:47.403Z,19.51
2022-09-22T10:50:35.039Z,19.03
2022-09-22T10:53:12.186Z,19.56
2022-09-22T10:55:44.720Z,19.32
2022-09-22T10:58:33.007Z,19.28
2022-09-22T11:01:11.703Z,18.89
2022-09-22T11:03:55.846Z,19.48
2022-09-22T11:07:01.625Z,19.85
2022-09-22T11:09:52.369Z,18.83
2022-09-22T11:12:31.009Z,18.99
2022-09-22T11:15:11.054Z,18.88
2022-09-22T11:17:58.686Z,18.50
2022-09-22T11:20:32.420Z,19.22
2022-09-22T11:23:43.250Z,19.09
2022-09-22T11:26:23.308Z,18.38
2022-09-22T11:29:00.314Z,18.46
2022-09-22T11:31:43.416Z,18.46
2022-09-22T11:34:34.519Z,18.60
2022-09-22T11:54:23.036Z,20.13
2022-09-22T11:56:52.767Z,20.16
2022-09-22T11:59:36.875Z,21.18
2022-09-22T12:02:15.361Z,21.28
2022-09-22T12:04:47.112Z,21.82
2022-09-22T12:07:19.605Z,21.55
2022-09-22T12:09:51.991Z,22.05
2022-09-22T12:12:22.154Z,21.55
2022-09-22T12:14:58.001Z,21.60
2022-09-22T12:17:30.241Z,20.83
2022-09-22T12:20:02.654Z,21.13
2022-09-22T12:22:34.493Z,20.81
2022-09-22T12:25:04.224Z,20.14
2022-09-22T12:27:34.050Z,19.57
2022-09-22T12:30:04.207Z,19.23
2022-09-22T12:32:37.372Z,19.03
2022-09-22T12:35:06.605Z,18.77
2022-09-22T12:37:38.238Z,19.51
2022-09-22T12:40:31.975Z,20.31
2022-09-22T12:43:01.036Z,20.57
2022-09-22T12:45:33.764Z,20.43
2022-09-22T12:48:05.995Z,20.26
2022-09-22T12:50:40.580Z,20.29
2022-09-22T12:53:24.972Z,20.86
2022-09-22T12:55:55.395Z,21.27
2022-09-22T12:58:45.369Z,21.98
2022-09-22T13:01:34.638Z,23.26
2022-09-22T13:04:16.914Z,22.92
2022-09-22T13:06:57.077Z,21.94
2022-09-22T13:09:30.876Z,22.86
2022-09-22T13:12:29.216Z,22.72
2022-09-22T13:15:24.659Z,22.97
2022-09-22T13:17:53.200Z,22.61
2022-09-22T13:20:26.127Z,21.70
2022-09-22T13:22:56.698Z,20.73
2022-09-22T13:25:29.298Z,20.53
2022-09-22T13:28:07.480Z,19.82
2022-09-22T13:30:36.045Z,19.49
2022-09-22T13:33:04.563Z,19.18
2022-09-22T13:35:34.883Z,18.48
2022-09-22T13:38:03.447Z,18.44
2022-09-22T13:40:34.987Z,17.99
2022-09-22T13:43:06.704Z,17.97
2022-09-22T13:45:35.330Z,17.38
2022-09-22T13:48:08.845Z,16.83
2022-09-22T13:50:42.001Z,16.42
2022-09-22T13:53:10.264Z,16.21
2022-09-22T13:55:38.928Z,15.77
2022-09-22T13:58:14.772Z,15.48
2022-09-22T14:01:11.536Z,14.82
2022-09-22T14:03:38.238Z,14.89
2022-09-22T14:06:11.403Z,15.02
2022-09-22T14:08:39.717Z,15.09
2022-09-22T14:11:12.656Z,15.33
2022-09-22T14:13:44.344Z,15.02
2022-09-22T14:16:22.450Z,14.87
2022-09-22T14:18:53.374Z,15.11
2022-09-22T14:21:22.571Z,15.32
2022-09-22T14:23:51.783Z,15.47
2022-09-22T14:26:37.663Z,15.48
2022-09-22T14:29:14.705Z,15.44
2022-09-22T14:31:45.508Z,15.26
2022-09-22T14:34:19.701Z,15.48
2022-09-22T14:36:49.565Z,15.43
2022-09-22T14:39:20.512Z,15.48
2022-09-22T14:41:53.085Z,15.36
2022-09-22T14:44:36.223Z,16.01
2022-09-22T14:47:20.615Z,16.83
2022-09-22T14:49:49.302Z,17.49
2022-09-22T14:52:26.835Z,18.29
2022-09-22T14:54:56.638Z,18.98
2022-09-22T14:57:26.566Z,19.53
2022-09-22T15:00:16.115Z,19.95
2022-09-22T15:02:47.133Z,19.97
2022-09-22T15:05:29.642Z,19.22
2022-09-22T15:07:58.896Z,19.01
2022-09-22T15:10:28.722Z,19.54
2022-09-22T15:12:59.543Z,19.58
2022-09-22T15:15:30.296Z,19.28
2022-09-22T15:18:16.110Z,19.50
2022-09-22T15:20:46.843Z,19.42
2022-09-22T15:23:18.326Z,19.55
2022-09-22T15:25:47.377Z,19.30
2022-09-22T15:28:17.038Z,19.44
2022-09-22T15:30:47.693Z,19.63
2022-09-22T15:33:16.789Z,19.66
2022-09-22T15:35:46.343Z,19.43
2022-09-22T15:38:19.977Z,19.40
2022-09-22T15:40:48.724Z,19.16
2022-09-22T15:43:20.759Z,18.81
2022-09-22T15:45:51.347Z,18.71
2022-09-22T15:48:28.033Z,18.03
2022-09-22T15:50:56.904Z,18.13
2022-09-22T15:53:25.453Z,17.78
2022-09-22T15:55:54.825Z,17.86
2022-09-22T15:58:24.074Z,17.81
2022-09-22T16:00:56.559Z,17.81
2022-09-22T16:03:25.158Z,17.87
2022-09-22T16:05:57.192Z,17.96
2022-09-22T16:08:28.675Z,18.10
2022-09-22T16:10:58.190Z,18.07
2022-09-22T16:13:28.146Z,18.11
2022-09-22T16:15:58.664Z,18.25
2022-09-22T16:18:27.896Z,18.04
2022-09-22T16:21:04.961Z,17.80
2022-09-22T16:23:33.752Z,17.78
2022-09-22T16:26:02.199Z,17.63
2022-09-22T16:28:30.820Z,17.35
2022-09-22T16:31:05.317Z,17.10
2022-09-22T16:33:35.135Z,17.01
2022-09-22T16:36:04.661Z,16.68
2022-09-22T16:38:34.637Z,16.48
2022-09-22T16:41:04.069Z,16.04
2022-09-22T16:43:33.310Z,15.31
2022-09-22T16:46:19.570Z,14.87
2022-09-22T16:48:51.069Z,14.29
2022-09-22T16:51:19.648Z,13.70
2022-09-22T16:53:53.796Z,13.57
2022-09-22T16:56:23.638Z,13.25
2022-09-22T16:58:52.638Z,13.05
2022-09-22T17:01:21.436Z,12.86
2022-09-22T17:03:52.471Z,12.80
2022-09-22T17:06:23.243Z,12.67
2022-09-22T17:08:53.727Z,12.52
2022-09-22T17:11:29.963Z,12.49
2022-09-22T17:14:01.052Z,12.30
2022-09-22T17:16:31.525Z,12.12
2022-09-22T17:19:03.552Z,11.99
2022-09-22T17:21:34.589Z,11.83
2022-09-22T17:24:04.509Z,11.78
2022-09-22T17:26:34.693Z,11.69
2022-09-22T17:29:04.606Z,11.76
2022-09-22T17:31:33.476Z,11.57
2022-09-22T17:34:03.715Z,11.42
2022-09-22T17:36:32.117Z,11.35
2022-09-22T17:39:02.012Z,11.19
2022-09-22T17:41:33.392Z,11.17
2022-09-22T17:44:03.434Z,11.08
2022-09-22T17:46:33.280Z,11.04
2022-09-22T17:49:20.915Z,10.95
2022-09-22T17:52:08.077Z,10.77
2022-09-22T17:54:55.446Z,10.73
2022-09-22T17:57:25.888Z,10.63
2022-09-22T17:59:55.350Z,10.82
2022-09-22T18:02:24.980Z,11.26
2022-09-22T18:04:55.137Z,11.37
2022-09-22T18:07:27.870Z,10.99
2022-09-22T18:09:56.595Z,10.80
2022-09-22T18:12:26.093Z,10.68
2022-09-22T18:14:55.802Z,10.74
2022-09-22T18:17:26.350Z,10.81
2022-09-22T18:19:57.426Z,10.79
2022-09-22T18:22:26.820Z,10.90
2022-09-22T18:24:56.877Z,10.63
2022-09-22T18:27:27.197Z,10.52
2022-09-22T18:29:58.771Z,10.34
2022-09-22T18:32:27.637Z,10.24
2022-09-22T18:34:57.325Z,10.10
2022-09-22T18:37:26.710Z,10.15
2022-09-22T18:39:55.364Z,10.08
2022-09-22T18:42:25.650Z,10.07
2022-09-22T18:44:54.313Z,10.01
2022-09-22T18:47:23.629Z,10.04
2022-09-22T18:49:52.757Z,10.25
2022-09-22T18:52:23.972Z,10.18
2022-09-22T18:54:54.560Z,9.97
2022-09-22T18:57:24.664Z,10.06
2022-09-22T18:59:54.099Z,10.02
2022-09-22T19:02:23.202Z,9.73
2022-09-22T19:04:52.628Z,9.49
2022-09-22T19:07:43.908Z,9.42
2022-09-22T19:10:14.229Z,9.39
2022-09-22T19:12:42.930Z,9.30
2022-09-22T19:15:15.161Z,9.20
2022-09-22T19:17:45.086Z,9.15
2022-09-22T19:20:15.025Z,9.11
2022-09-22T19:22:45.148Z,9.17
2022-09-22T19:25:13.601Z,9.11
2022-09-22T19:27:41.776Z,9.04
2022-09-22T19:30:11.421Z,8.93
2022-09-22T19:32:40.692Z,8.82
2022-09-22T19:35:10.060Z,8.89
2022-09-22T19:37:38.403Z,9.04
2022-09-22T19:40:10.058Z,9.07
2022-09-22T19:42:40.469Z,9.15
2022-09-22T19:45:10.519Z,9.19
2022-09-22T19:47:39.628Z,9.24
2022-09-22T19:50:09.277Z,9.24
2022-09-22T19:52:38.463Z,9.28
2022-09-22T19:55:11.562Z,9.09
2022-09-22T19:57:41.744Z,8.80
2022-09-22T20:00:11.836Z,8.57
2022-09-22T20:02:40.135Z,8.50
2022-09-22T20:05:17.931Z,8.40
2022-09-22T20:07:46.243Z,8.36
2022-09-22T20:10:17.306Z,8.41
2022-09-22T20:12:45.660Z,8.35
2022-09-22T20:15:15.212Z,8.44
2022-09-22T20:17:46.121Z,8.47
2022-09-22T20:20:16.091Z,8.47
2022-09-22T20:22:44.950Z,8.46
2022-09-22T20:25:22.729Z,8.45
2022-09-22T20:27:51.164Z,8.55
2022-09-22T20:30:19.713Z,8.77
2022-09-22T20:32:47.978Z,8.63
2022-09-22T20:35:19.107Z,8.50
2022-09-22T20:37:47.428Z,8.45
2022-09-22T20:40:20.522Z,8.28
2022-09-22T20:42:49.319Z,8.03
2022-09-22T20:45:18.595Z,7.88
2022-09-22T20:47:46.793Z,7.95
2022-09-22T20:50:15.537Z,7.89
2022-09-22T20:52:43.850Z,7.76
2022-09-22T20:55:12.970Z,7.75
2022-09-22T20:57:44.452Z,7.83
2022-09-22T21:00:15.410Z,7.82
2022-09-22T21:02:43.725Z,7.88
2022-09-22T21:05:12.816Z,7.79
2022-09-22T21:07:40.979Z,7.85
2022-09-22T21:10:27.614Z,7.78
2022-09-22T21:13:00.523Z,7.89
2022-09-22T21:15:30.041Z,7.90
2022-09-22T21:17:58.478Z,7.73
2022-09-22T21:20:27.297Z,8.00
2022-09-22T21:22:55.756Z,7.84
2022-09-22T21:25:25.106Z,7.66
2022-09-22T21:27:53.338Z,7.36
2022-09-22T21:30:22.950Z,7.27
2022-09-22T21:32:51.471Z,7.26
2022-09-22T21:35:19.756Z,7.14
2022-09-22T21:37:48.045Z,6.93
2022-09-22T21:40:17.687Z,6.89
2022-09-22T21:42:45.900Z,7.20
2022-09-22T21:45:14.219Z,7.42
2022-09-22T21:47:44.367Z,7.24
2022-09-22T21:50:12.904Z,7.21
2022-09-22T21:52:41.061Z,7.12
2022-09-22T21:55:10.873Z,7.13
2022-09-22T21:57:38.993Z,7.10
2022-09-22T22:00:09.086Z,7.01
2022-09-22T22:03:01.660Z,7.07
2022-09-22T22:05:30.277Z,6.97
2022-09-22T22:07:58.464Z,6.83
2022-09-22T22:10:26.862Z,6.79
2022-09-22T22:12:56.692Z,6.84
2022-09-22T22:15:25.008Z,6.96
2022-09-22T22:17:54.621Z,6.98
2022-09-22T22:20:23.490Z,6.98
2022-09-22T22:22:51.626Z,6.92
2022-09-22T22:25:20.162Z,6.88
2022-09-22T22:27:48.397Z,6.58
2022-09-22T22:30:19.174Z,6.84
2022-09-22T22:32:47.612Z,6.82
2022-09-22T22:35:17.426Z,6.79
2022-09-22T22:37:46.895Z,6.84
2022-09-22T22:40:15.287Z,6.92
2022-09-22T22:42:43.461Z,6.76
2022-09-22T22:45:12.277Z,6.67
2022-09-22T22:47:40.413Z,6.61
2022-09-22T22:50:10.316Z,6.58
2022-09-22T22:52:42.223Z,6.48
2022-09-22T22:55:10.687Z,6.60
2022-09-22T22:57:38.876Z,6.75
2022-09-22T23:00:08.245Z,6.64
2022-09-22T23:02:36.474Z,6.48
2022-09-22T23:05:05.021Z,6.69
2022-09-22T23:07:33.320Z,6.71
2022-09-22T23:10:07.213Z,6.35
2022-09-22T23:12:36.026Z,6.26
2022-09-22T23:15:04.474Z,6.41
2022-09-22T23:17:33.509Z,6.54
2022-09-22T23:20:01.933Z,6.67
2022-09-22T23:22:30.733Z,6.32
2022-09-22T23:24:59.433Z,6.25
2022-09-22T23:27:29.396Z,6.15
2022-09-22T23:29:58.146Z,6.19
2022-09-22T23:32:26.342Z,6.14
2022-09-22T23:34:54.758Z,6.12
2022-09-22T23:37:24.857Z,6.28
2022-09-22T23:39:53.829Z,6.31
2022-09-22T23:42:22.564Z,6.18
2022-09-22T23:44:52.518Z,6.16
2022-09-22T23:47:20.780Z,6.08
2022-09-22T23:49:49.093Z,5.97
2022-09-22T23:52:17.485Z,5.82
2022-09-22T23:54:45.873Z,5.65
2022-09-22T23:57:14.119Z,5.57
2022-09-22T23:59:42.278Z,5.49
